createdAt,value
2017-12-19T00:01:49.358Z,3.30
2017-12-19T00:04:17.901Z,3.30
2017-12-19T00:06:45.488Z,3.30
2017-12-19T00:09:13.099Z,3.30
2017-12-19T00:11:40.649Z,3.20
2017-12-19T00:14:08.417Z,3.20
2017-12-19T00:16:35.979Z,3.30
2017-12-19T00:19:03.665Z,3.30
2017-12-19T00:21:31.978Z,3.40
2017-12-19T00:23:59.598Z,3.30
2017-12-19T00:26:28.225Z,3.40
2017-12-19T00:28:55.805Z,3.40
2017-12-19T00:31:23.409Z,3.30
2017-12-19T00:33:51.100Z,3.30
2017-12-19T00:36:18.680Z,3.30
2017-12-19T00:38:46.275Z,3.40
2017-12-19T00:41:13.858Z,3.40
2017-12-19T00:43:42.415Z,3.40
2017-12-19T00:46:10.076Z,3.40
2017-12-19T00:48:39.355Z,3.30
2017-12-19T00:51:06.915Z,3.30
2017-12-19T00:53:34.484Z,3.30
2017-12-19T00:56:02.078Z,3.30
2017-12-19T00:58:29.676Z,3.20
2017-12-19T01:00:57.258Z,3.20
2017-12-19T01:03:24.797Z,3.30
2017-12-19T01:05:54.310Z,3.40
2017-12-19T01:08:21.839Z,3.40
2017-12-19T01:10:50.382Z,3.40
2017-12-19T01:13:18.689Z,3.40
2017-12-19T01:15:46.457Z,3.40
2017-12-19T01:18:14.002Z,3.40
2017-12-19T01:20:43.024Z,3.40
2017-12-19T01:23:11.366Z,3.40
2017-12-19T01:25:39.934Z,3.50
2017-12-19T01:28:07.505Z,3.40
2017-12-19T01:30:35.826Z,3.40
2017-12-19T01:33:03.388Z,3.40
2017-12-19T01:35:31.057Z,3.40
2017-12-19T01:37:58.602Z,3.30
2017-12-19T01:40:26.778Z,3.30
2017-12-19T01:42:55.157Z,3.30
2017-12-19T01:45:24.386Z,3.40
2017-12-19T01:47:53.245Z,3.30
2017-12-19T01:50:22.137Z,3.30
2017-12-19T01:52:51.505Z,3.20
2017-12-19T01:55:19.092Z,3.30
2017-12-19T01:57:46.691Z,3.20
2017-12-19T02:00:14.243Z,3.20
2017-12-19T02:02:41.773Z,2.90
2017-12-19T02:05:09.363Z,3.00
2017-12-19T02:07:38.118Z,3.00
2017-12-19T02:10:07.366Z,2.90
2017-12-19T02:12:34.946Z,2.90
2017-12-19T02:15:03.247Z,2.90
2017-12-19T02:17:30.809Z,2.90
2017-12-19T02:19:58.358Z,3.10
2017-12-19T02:22:25.947Z,3.20
2017-12-19T02:24:54.414Z,3.30
2017-12-19T02:27:21.930Z,3.40
2017-12-19T02:29:50.303Z,3.30
2017-12-19T02:32:17.867Z,3.30
2017-12-19T02:34:45.404Z,3.30
2017-12-19T02:37:13.023Z,3.30
2017-12-19T02:39:40.973Z,3.30
2017-12-19T02:42:08.534Z,3.20
2017-12-19T02:44:36.087Z,3.20
2017-12-19T02:47:03.618Z,3.10
2017-12-19T02:49:31.192Z,3.00
2017-12-19T02:51:58.769Z,3.20
2017-12-19T02:54:26.323Z,3.20
2017-12-19T02:56:53.887Z,3.30
2017-12-19T02:59:21.425Z,3.20
2017-12-19T03:01:49.000Z,3.00
2017-12-19T03:04:16.568Z,3.00
2017-12-19T03:06:45.078Z,3.00
2017-12-19T03:09:14.572Z,2.90
2017-12-19T03:11:42.124Z,2.80
2017-12-19T03:14:10.656Z,3.00
2017-12-19T03:16:38.222Z,3.00
2017-12-19T03:19:05.752Z,3.00
2017-12-19T03:21:33.318Z,3.10
2017-12-19T03:24:01.057Z,3.10
2017-12-19T03:26:28.619Z,3.20
2017-12-19T03:28:56.161Z,3.20
2017-12-19T03:31:23.822Z,3.30
2017-12-19T03:33:53.319Z,3.30
2017-12-19T03:36:20.848Z,3.40
2017-12-19T03:38:49.179Z,3.40
2017-12-19T03:41:16.740Z,3.40
2017-12-19T03:43:44.261Z,3.40
2017-12-19T03:46:11.791Z,3.40
2017-12-19T03:48:40.666Z,3.40
2017-12-19T03:51:09.398Z,3.40
2017-12-19T03:53:38.946Z,3.40
2017-12-19T03:56:06.500Z,3.40
2017-12-19T03:58:34.043Z,3.30
2017-12-19T04:01:01.580Z,3.40
2017-12-19T04:03:29.150Z,3.40
2017-12-19T04:05:56.701Z,3.30
2017-12-19T04:08:24.273Z,3.40
2017-12-19T04:10:51.803Z,3.40
2017-12-19T04:13:21.080Z,3.30
2017-12-19T04:15:48.638Z,3.30
2017-12-19T04:18:16.171Z,3.20
2017-12-19T04:20:43.730Z,3.10
2017-12-19T04:23:11.298Z,2.90
2017-12-19T04:25:38.883Z,2.70
2017-12-19T04:28:07.171Z,3.10
2017-12-19T04:30:36.482Z,3.20
2017-12-19T04:33:04.080Z,3.10
2017-12-19T04:35:31.678Z,3.20
2017-12-19T04:37:59.979Z,3.30
2017-12-19T04:40:28.285Z,3.20
2017-12-19T04:42:55.859Z,3.20
2017-12-19T04:45:23.809Z,3.20
2017-12-19T04:47:51.578Z,3.00
2017-12-19T04:50:19.135Z,2.90
2017-12-19T04:52:46.694Z,2.80
2017-12-19T04:55:14.260Z,2.90
2017-12-19T04:57:41.834Z,3.10
2017-12-19T05:00:09.374Z,3.10
2017-12-19T05:02:37.892Z,3.20
2017-12-19T05:05:05.890Z,3.20
2017-12-19T05:07:34.196Z,3.30
2017-12-19T05:10:01.763Z,3.30
2017-12-19T05:12:29.304Z,3.30
2017-12-19T05:14:56.876Z,3.30
2017-12-19T05:17:24.532Z,3.30
2017-12-19T05:19:52.151Z,3.30
2017-12-19T05:22:19.686Z,3.30
2017-12-19T05:24:47.302Z,3.30
2017-12-19T05:27:15.825Z,3.30
2017-12-19T05:29:43.379Z,3.40
2017-12-19T05:32:12.020Z,3.40
2017-12-19T05:34:39.558Z,3.30
2017-12-19T05:37:07.891Z,3.40
2017-12-19T05:39:35.437Z,3.30
2017-12-19T05:42:02.989Z,3.40
2017-12-19T05:44:30.528Z,3.40
2017-12-19T05:46:58.311Z,3.50
2017-12-19T05:49:25.844Z,3.40
2017-12-19T05:51:56.076Z,3.40
2017-12-19T05:54:23.605Z,3.40
2017-12-19T05:56:51.150Z,3.50
2017-12-19T05:59:18.708Z,3.50
2017-12-19T06:01:47.288Z,3.50
2017-12-19T06:04:15.821Z,3.50
2017-12-19T06:06:43.380Z,3.40
2017-12-19T06:09:10.944Z,3.30
2017-12-19T06:11:38.509Z,3.30
2017-12-19T06:14:06.142Z,3.20
2017-12-19T06:16:34.435Z,3.10
2017-12-19T06:19:03.988Z,3.10
2017-12-19T06:21:31.547Z,2.90
2017-12-19T06:23:59.092Z,2.80
2017-12-19T06:26:26.705Z,2.70
2017-12-19T06:28:54.304Z,2.70
2017-12-19T06:31:22.196Z,2.70
2017-12-19T06:33:49.922Z,2.90
2017-12-19T06:36:19.592Z,2.90
2017-12-19T06:38:47.416Z,3.10
2017-12-19T06:41:14.995Z,3.20
2017-12-19T06:43:42.555Z,3.30
2017-12-19T06:46:15.091Z,3.30
2017-12-19T06:48:42.978Z,3.40
2017-12-19T06:51:10.514Z,3.40
2017-12-19T06:53:38.075Z,3.40
2017-12-19T06:56:05.666Z,3.30
2017-12-19T06:58:33.223Z,3.20
2017-12-19T07:01:01.702Z,3.30
2017-12-19T07:03:29.267Z,3.30
2017-12-19T07:05:56.831Z,3.30
2017-12-19T07:08:24.427Z,3.40
2017-12-19T07:10:52.116Z,3.40
2017-12-19T07:13:19.732Z,3.30
2017-12-19T07:15:48.256Z,3.30
2017-12-19T07:18:16.822Z,3.40
2017-12-19T07:20:44.606Z,3.40
2017-12-19T07:23:12.148Z,3.40
2017-12-19T07:25:39.708Z,3.40
2017-12-19T07:28:07.359Z,3.40
2017-12-19T07:30:34.943Z,3.40
2017-12-19T07:33:02.487Z,3.50
2017-12-19T07:35:30.129Z,3.40
2017-12-19T07:37:59.416Z,3.30
2017-12-19T07:40:27.764Z,3.30
2017-12-19T07:42:55.476Z,3.30
2017-12-19T07:45:23.057Z,3.20
2017-12-19T07:47:52.769Z,3.30
2017-12-19T07:50:21.352Z,3.40
2017-12-19T07:52:49.126Z,3.50
2017-12-19T07:55:17.632Z,3.50
2017-12-19T07:57:45.193Z,3.40
2017-12-19T08:00:12.771Z,3.30
2017-12-19T08:02:40.337Z,3.40
2017-12-19T08:05:08.629Z,3.40
2017-12-19T08:07:38.123Z,3.30
2017-12-19T08:10:06.852Z,3.70
2017-12-19T08:12:34.464Z,3.60
2017-12-19T08:15:02.047Z,3.50
2017-12-19T08:17:32.790Z,3.50
2017-12-19T08:20:02.940Z,3.50
2017-12-19T08:22:32.662Z,3.70
2017-12-19T08:25:03.356Z,3.70
2017-12-19T08:27:30.935Z,3.70
2017-12-19T08:29:58.478Z,3.70
2017-12-19T08:32:26.033Z,3.80
2017-12-19T08:34:53.797Z,3.80
2017-12-19T08:37:21.382Z,3.80
2017-12-19T08:39:49.020Z,3.80
2017-12-19T08:42:16.587Z,3.80
2017-12-19T08:44:44.212Z,3.80
2017-12-19T08:47:12.501Z,3.80
2017-12-19T08:49:40.565Z,3.80
2017-12-19T08:52:08.286Z,3.90
2017-12-19T08:54:35.862Z,3.80
2017-12-19T08:57:03.565Z,3.80
2017-12-19T08:59:31.336Z,3.90
2017-12-19T09:01:58.954Z,3.90
2017-12-19T09:04:27.445Z,3.90
2017-12-19T09:06:55.781Z,4.00
2017-12-19T09:09:23.353Z,4.00
2017-12-19T09:11:50.936Z,4.00
2017-12-19T09:14:18.500Z,4.00
2017-12-19T09:16:48.792Z,4.10
2017-12-19T09:19:17.118Z,4.00
2017-12-19T09:21:44.691Z,4.00
2017-12-19T09:24:12.284Z,4.00
2017-12-19T09:26:39.845Z,4.00
2017-12-19T09:29:07.459Z,4.10
2017-12-19T09:31:35.015Z,3.90
2017-12-19T09:34:02.737Z,3.90
2017-12-19T09:36:30.227Z,3.90
2017-12-19T09:38:57.888Z,3.80
2017-12-19T09:41:25.495Z,3.80
2017-12-19T09:43:53.120Z,3.90
2017-12-19T09:46:20.679Z,3.90
2017-12-19T09:48:48.280Z,3.90
2017-12-19T09:51:15.828Z,3.80
2017-12-19T09:53:44.354Z,3.60
2017-12-19T09:56:12.989Z,3.80
2017-12-19T09:58:40.582Z,4.00
2017-12-19T10:01:08.911Z,4.10
2017-12-19T10:03:36.455Z,4.10
2017-12-19T10:06:04.013Z,4.30
2017-12-19T10:08:31.565Z,4.40
2017-12-19T10:10:59.168Z,4.50
2017-12-19T10:13:26.707Z,4.50
2017-12-19T10:15:54.284Z,4.40
2017-12-19T10:18:21.816Z,4.50
2017-12-19T10:20:49.385Z,4.60
2017-12-19T10:23:16.930Z,4.50
2017-12-19T10:25:44.537Z,4.30
2017-12-19T10:28:12.155Z,4.10
2017-12-19T10:30:39.690Z,4.00
2017-12-19T10:33:09.214Z,4.20
2017-12-19T10:35:37.720Z,4.10
2017-12-19T10:38:05.284Z,4.10
2017-12-19T10:40:32.818Z,4.30
2017-12-19T10:43:00.379Z,4.50
2017-12-19T10:45:27.927Z,4.60
2017-12-19T10:47:55.477Z,4.40
2017-12-19T10:50:23.035Z,4.40
2017-12-19T10:52:51.561Z,4.40
2017-12-19T10:55:20.154Z,4.30
2017-12-19T10:57:47.692Z,4.40
2017-12-19T11:00:15.542Z,4.50
2017-12-19T11:02:43.085Z,4.70
2017-12-19T11:05:11.432Z,4.80
2017-12-19T11:07:39.733Z,4.70
2017-12-19T11:10:07.325Z,4.70
2017-12-19T11:12:34.839Z,4.70
2017-12-19T11:15:02.399Z,4.70
2017-12-19T11:17:29.943Z,4.70
2017-12-19T11:19:58.481Z,4.70
2017-12-19T11:22:26.080Z,4.70
2017-12-19T11:24:53.619Z,4.80
2017-12-19T11:27:21.504Z,4.80
2017-12-19T11:29:49.823Z,5.00
2017-12-19T11:32:18.468Z,4.90
2017-12-19T11:34:46.040Z,4.90
2017-12-19T11:37:13.661Z,4.80
2017-12-19T11:39:42.212Z,4.80
2017-12-19T11:42:09.792Z,4.80
2017-12-19T11:44:37.332Z,4.80
2017-12-19T11:47:05.154Z,4.80
2017-12-19T11:49:32.710Z,4.70
2017-12-19T11:52:00.271Z,4.80
2017-12-19T11:54:27.831Z,4.80
2017-12-19T11:56:55.434Z,4.90
2017-12-19T11:59:23.019Z,4.90
2017-12-19T12:01:50.555Z,4.90
2017-12-19T12:04:18.136Z,4.80
2017-12-19T12:06:46.320Z,4.70
2017-12-19T12:09:19.080Z,4.40
2017-12-19T12:11:47.274Z,4.30
2017-12-19T12:14:16.184Z,4.30
2017-12-19T12:16:43.856Z,4.30
2017-12-19T12:19:11.423Z,4.30
2017-12-19T12:21:39.731Z,4.80
2017-12-19T12:24:08.253Z,4.80
2017-12-19T12:26:35.842Z,4.60
2017-12-19T12:29:03.446Z,4.30
2017-12-19T12:31:31.047Z,4.10
2017-12-19T12:33:58.639Z,4.20
2017-12-19T12:36:26.222Z,4.20
2017-12-19T12:38:53.760Z,4.20
2017-12-19T12:41:24.032Z,4.70
2017-12-19T12:43:51.563Z,4.70
2017-12-19T12:46:19.087Z,4.60
2017-12-19T12:48:47.427Z,4.80
2017-12-19T12:51:15.005Z,4.70
2017-12-19T12:53:42.559Z,4.90
2017-12-19T12:56:10.139Z,4.70
2017-12-19T12:58:37.699Z,4.60
2017-12-19T13:01:05.263Z,4.60
2017-12-19T13:03:33.591Z,4.40
2017-12-19T13:06:01.129Z,4.40
2017-12-19T13:08:28.795Z,4.40
2017-12-19T13:10:56.331Z,4.50
2017-12-19T13:13:23.959Z,4.60
2017-12-19T13:15:51.497Z,4.70
2017-12-19T13:18:19.147Z,4.80
2017-12-19T13:20:46.717Z,4.80
2017-12-19T13:23:14.358Z,4.80
2017-12-19T13:25:41.924Z,4.80
2017-12-19T13:28:09.455Z,5.00
2017-12-19T13:30:37.021Z,5.10
2017-12-19T13:33:04.683Z,5.10
2017-12-19T13:35:32.251Z,5.00
2017-12-19T13:37:59.792Z,4.80
2017-12-19T13:40:28.323Z,4.60
2017-12-19T13:42:56.639Z,4.40
2017-12-19T13:45:24.223Z,4.40
2017-12-19T13:47:53.139Z,4.30
2017-12-19T13:50:20.738Z,4.30
2017-12-19T13:52:48.341Z,4.50
2017-12-19T13:55:15.956Z,4.60
2017-12-19T13:57:43.530Z,4.70
2017-12-19T14:00:11.080Z,4.80
2017-12-19T14:02:38.676Z,4.70
2017-12-19T14:05:06.459Z,4.70
2017-12-19T14:07:34.207Z,4.70
2017-12-19T14:10:02.726Z,4.80
2017-12-19T14:12:30.266Z,4.60
2017-12-19T14:14:57.822Z,4.40
2017-12-19T14:17:25.374Z,4.40
2017-12-19T14:19:52.943Z,4.40
2017-12-19T14:22:20.485Z,4.30
2017-12-19T14:24:48.043Z,4.20
2017-12-19T14:27:16.596Z,4.20
2017-12-19T14:29:44.927Z,4.50
2017-12-19T14:32:12.462Z,4.60
2017-12-19T14:34:40.225Z,4.60
2017-12-19T14:37:07.752Z,4.60
2017-12-19T14:39:36.367Z,4.40
2017-12-19T14:42:03.927Z,4.40
2017-12-19T14:44:31.471Z,4.30
2017-12-19T14:46:59.030Z,4.40
2017-12-19T14:49:26.555Z,4.50
2017-12-19T14:51:54.125Z,4.60
2017-12-19T14:54:21.736Z,4.60
2017-12-19T14:56:49.307Z,4.60
2017-12-19T14:59:16.837Z,4.60
2017-12-19T15:01:44.410Z,4.60
2017-12-19T15:04:11.960Z,4.50
2017-12-19T15:06:39.520Z,4.40
2017-12-19T15:09:07.039Z,4.40
2017-12-19T15:11:34.608Z,4.30
2017-12-19T15:14:02.146Z,4.30
2017-12-19T15:16:29.678Z,4.30
2017-12-19T15:18:57.235Z,4.40
2017-12-19T15:21:24.765Z,4.40
2017-12-19T15:23:52.347Z,4.40
2017-12-19T15:26:19.876Z,4.40
2017-12-19T15:28:47.443Z,4.40
2017-12-19T15:31:14.972Z,4.30
2017-12-19T15:33:42.552Z,4.30
2017-12-19T15:36:10.108Z,4.20
2017-12-19T15:38:37.666Z,4.20
2017-12-19T15:41:05.192Z,4.20
2017-12-19T15:43:32.747Z,4.30
2017-12-19T15:46:00.271Z,4.30
2017-12-19T15:48:27.790Z,4.20
2017-12-19T15:50:55.351Z,4.20
2017-12-19T15:53:23.647Z,4.20
2017-12-19T15:55:51.204Z,4.20
2017-12-19T15:58:18.771Z,4.20
2017-12-19T16:00:47.577Z,4.20
2017-12-19T16:03:15.111Z,4.20
2017-12-19T16:05:42.662Z,4.10
2017-12-19T16:08:10.253Z,4.20
2017-12-19T16:10:37.895Z,4.30
2017-12-19T16:13:05.427Z,4.30
2017-12-19T16:15:33.739Z,4.40
2017-12-19T16:18:01.312Z,4.40
2017-12-19T16:20:28.848Z,4.30
2017-12-19T16:22:56.420Z,4.20
2017-12-19T16:25:23.952Z,4.10
2017-12-19T16:27:51.508Z,4.10
2017-12-19T16:30:20.019Z,4.10
2017-12-19T16:32:47.619Z,4.20
2017-12-19T16:35:15.160Z,4.20
2017-12-19T16:37:44.698Z,4.20
2017-12-19T16:40:13.091Z,4.30
2017-12-19T16:42:40.654Z,4.30
2017-12-19T16:45:08.194Z,4.30
2017-12-19T16:47:36.550Z,4.30
2017-12-19T16:50:04.869Z,4.30
2017-12-19T16:52:32.408Z,4.30
2017-12-19T16:55:00.858Z,4.30
2017-12-19T16:57:28.391Z,4.30
2017-12-19T16:59:55.943Z,4.10
2017-12-19T17:02:23.497Z,4.10
2017-12-19T17:04:51.075Z,4.10
2017-12-19T17:07:18.760Z,4.00
2017-12-19T17:09:48.313Z,4.00
2017-12-19T17:12:15.861Z,4.00
2017-12-19T17:14:43.468Z,4.00
2017-12-19T17:17:11.113Z,4.00
2017-12-19T17:19:38.666Z,3.90
2017-12-19T17:22:06.231Z,3.90
2017-12-19T17:24:33.875Z,3.90
2017-12-19T17:27:02.426Z,4.00
2017-12-19T17:29:30.725Z,3.90
2017-12-19T17:31:58.286Z,3.80
2017-12-19T17:34:25.805Z,3.80
2017-12-19T17:36:53.366Z,3.70
2017-12-19T17:39:20.896Z,3.60
2017-12-19T17:41:48.460Z,3.70
2017-12-19T17:44:16.960Z,3.70
2017-12-19T17:46:45.454Z,3.80
2017-12-19T17:49:12.995Z,3.70
2017-12-19T17:51:41.650Z,3.70
2017-12-19T17:54:11.182Z,3.70
2017-12-19T17:56:38.710Z,3.70
2017-12-19T17:59:06.275Z,3.50
2017-12-19T18:01:33.814Z,3.40
2017-12-19T18:04:02.332Z,3.50
2017-12-19T18:06:29.867Z,3.60
2017-12-19T18:08:57.436Z,3.70
2017-12-19T18:11:24.991Z,3.70
2017-12-19T18:13:53.305Z,3.70
2017-12-19T18:16:20.859Z,3.70
2017-12-19T18:18:49.339Z,3.70
2017-12-19T18:21:16.900Z,3.70
2017-12-19T18:23:44.428Z,3.70
2017-12-19T18:26:12.920Z,3.50
2017-12-19T18:28:40.466Z,3.50
2017-12-19T18:31:08.040Z,3.40
2017-12-19T18:33:35.583Z,3.40
2017-12-19T18:36:03.125Z,3.40
2017-12-19T18:38:30.687Z,3.40
2017-12-19T18:40:58.225Z,3.40
2017-12-19T18:43:25.792Z,3.40
2017-12-19T18:45:53.342Z,3.40
2017-12-19T18:48:21.682Z,3.40
2017-12-19T18:50:49.221Z,3.40
2017-12-19T18:53:16.803Z,3.40
2017-12-19T18:55:45.089Z,3.40
2017-12-19T18:58:12.679Z,3.40
2017-12-19T19:00:40.988Z,3.40
2017-12-19T19:03:08.537Z,3.30
2017-12-19T19:05:36.099Z,3.30
2017-12-19T19:08:04.779Z,3.30
2017-12-19T19:10:32.723Z,3.20
2017-12-19T19:13:00.408Z,3.10
2017-12-19T19:15:27.993Z,3.10
2017-12-19T19:17:55.622Z,3.10
2017-12-19T19:20:25.119Z,3.10
2017-12-19T19:22:52.676Z,3.10
2017-12-19T19:25:20.255Z,3.20
2017-12-19T19:27:47.795Z,3.20
2017-12-19T19:30:16.811Z,3.20
2017-12-19T19:32:44.541Z,3.20
2017-12-19T19:35:12.084Z,3.10
2017-12-19T19:37:40.417Z,3.10
2017-12-19T19:40:07.948Z,3.10
2017-12-19T19:42:35.495Z,3.20
2017-12-19T19:45:03.032Z,3.20
2017-12-19T19:47:30.604Z,3.30
2017-12-19T19:49:59.006Z,3.30
2017-12-19T19:52:26.536Z,3.20
2017-12-19T19:54:54.836Z,3.30
2017-12-19T19:57:22.396Z,3.30
2017-12-19T19:59:49.924Z,3.30
2017-12-19T20:02:17.456Z,3.30
2017-12-19T20:04:45.054Z,3.30
2017-12-19T20:07:14.251Z,3.30
2017-12-19T20:09:41.803Z,3.30
2017-12-19T20:12:09.373Z,3.30
2017-12-19T20:14:36.967Z,3.20
2017-12-19T20:17:04.510Z,3.10
2017-12-19T20:19:32.090Z,3.10
2017-12-19T20:21:59.638Z,3.10
2017-12-19T20:24:27.220Z,3.20
2017-12-19T20:26:54.854Z,3.20
2017-12-19T20:29:23.401Z,3.10
2017-12-19T20:31:50.989Z,3.20
2017-12-19T20:34:18.530Z,3.30
2017-12-19T20:36:46.855Z,3.40
2017-12-19T20:39:15.358Z,3.30
2017-12-19T20:41:43.680Z,3.40
2017-12-19T20:44:11.240Z,3.40
2017-12-19T20:46:38.797Z,3.30
2017-12-19T20:49:06.327Z,3.30
2017-12-19T20:51:33.891Z,3.30
2017-12-19T20:54:01.439Z,3.30
2017-12-19T20:56:28.983Z,3.30
2017-12-19T20:58:56.586Z,3.30
2017-12-19T21:01:24.139Z,3.30
2017-12-19T21:03:52.428Z,3.30
2017-12-19T21:06:20.009Z,3.30
2017-12-19T21:08:47.575Z,3.10
2017-12-19T21:11:15.899Z,2.80
2017-12-19T21:13:43.500Z,2.90
2017-12-19T21:16:11.055Z,3.00
2017-12-19T21:18:38.613Z,2.90
2017-12-19T21:21:06.178Z,2.70
2017-12-19T21:23:33.937Z,2.80
2017-12-19T21:26:01.937Z,2.70
2017-12-19T21:28:29.669Z,2.70
2017-12-19T21:30:58.350Z,2.80
2017-12-19T21:33:27.130Z,3.00
2017-12-19T21:35:55.189Z,3.10
2017-12-19T21:38:23.079Z,3.20
2017-12-19T21:40:51.282Z,3.30
2017-12-19T21:43:18.839Z,3.30
2017-12-19T21:45:46.410Z,3.30
2017-12-19T21:48:13.950Z,3.30
2017-12-19T21:50:41.483Z,3.30
2017-12-19T21:53:09.070Z,3.40
2017-12-19T21:55:36.613Z,3.40
2017-12-19T21:58:04.184Z,3.40
2017-12-19T22:00:31.728Z,3.40
2017-12-19T22:02:59.312Z,3.40
2017-12-19T22:05:26.874Z,3.40
2017-12-19T22:07:54.468Z,3.40
2017-12-19T22:10:22.807Z,3.40
2017-12-19T22:12:50.367Z,3.40
2017-12-19T22:15:17.926Z,3.30
2017-12-19T22:17:45.497Z,3.30
2017-12-19T22:20:13.046Z,3.30
2017-12-19T22:22:40.628Z,3.30
2017-12-19T22:25:08.168Z,3.20
2017-12-19T22:27:35.706Z,3.30
2017-12-19T22:30:03.280Z,3.20
2017-12-19T22:32:31.804Z,3.20
2017-12-19T22:35:00.135Z,3.20
2017-12-19T22:37:27.667Z,3.20
2017-12-19T22:39:55.219Z,3.10
2017-12-19T22:42:23.741Z,3.10
2017-12-19T22:44:51.310Z,2.80
2017-12-19T22:47:18.871Z,2.60
2017-12-19T22:49:47.196Z,2.70
2017-12-19T22:52:14.748Z,2.70
2017-12-19T22:54:42.283Z,2.70
2017-12-19T22:57:09.863Z,2.80
2017-12-19T22:59:39.132Z,2.60
2017-12-19T23:02:07.455Z,2.70
2017-12-19T23:04:35.969Z,2.70
2017-12-19T23:07:03.549Z,2.90
2017-12-19T23:09:31.838Z,3.20
2017-12-19T23:12:00.172Z,3.30
2017-12-19T23:14:27.724Z,3.30
2017-12-19T23:16:55.292Z,3.40
2017-12-19T23:19:22.859Z,3.40
2017-12-19T23:21:50.389Z,3.40
2017-12-19T23:24:17.944Z,3.40
2017-12-19T23:26:45.542Z,3.40
2017-12-19T23:29:15.043Z,3.30
2017-12-19T23:31:42.576Z,3.30
2017-12-19T23:34:10.143Z,3.30
2017-12-19T23:36:37.692Z,3.00
2017-12-19T23:39:07.707Z,2.60
2017-12-19T23:41:35.462Z,2.70
2017-12-19T23:44:03.147Z,2.80
2017-12-19T23:46:31.987Z,2.60
2017-12-19T23:49:01.619Z,2.70
2017-12-19T23:51:29.311Z,2.80
2017-12-19T23:53:57.151Z,3.00
2017-12-19T23:56:24.893Z,3.10
2017-12-19T23:58:52.792Z,3.10
